sensor_id;sensor_type;location;lat;lon;timestamp;P1;durP1;ratioP1;P2;durP2;ratioP2
11439;SDS011;5776;51.814;4.510;2023-08-01T00:00:04;3.00;;;1.63;;
11439;SDS011;5776;51.814;4.510;2023-08-01T00:02:33;6.63;;;1.60;;
11439;SDS011;5776;51.814;4.510;2023-08-01T00:04:59;5.32;;;1.35;;
11439;SDS011;5776;51.814;4.510;2023-08-01T00:07:28;6.35;;;1.58;;
11439;SDS011;5776;51.814;4.510;2023-08-01T00:09:54;9.05;;;1.90;;
11439;SDS011;5776;51.814;4.510;2023-08-01T00:12:20;9.52;;;1.75;;
11439;SDS011;5776;51.814;4.510;2023-08-01T00:14:46;4.10;;;1.60;;
11439;SDS011;5776;51.814;4.510;2023-08-01T00:17:12;6.47;;;1.73;;
11439;SDS011;5776;51.814;4.510;2023-08-01T00:19:39;7.60;;;1.85;;
11439;SDS011;5776;51.814;4.510;2023-08-01T00:22:06;5.68;;;1.58;;
11439;SDS011;5776;51.814;4.510;2023-08-01T00:24:32;6.63;;;2.20;;
11439;SDS011;5776;51.814;4.510;2023-08-01T00:26:58;7.88;;;1.60;;
11439;SDS011;5776;51.814;4.510;2023-08-01T00:29:24;10.07;;;1.75;;
11439;SDS011;5776;51.814;4.510;2023-08-01T00:31:49;4.13;;;1.17;;
11439;SDS011;5776;51.814;4.510;2023-08-01T00:34:16;5.45;;;1.60;;
11439;SDS011;5776;51.814;4.510;2023-08-01T00:36:45;5.90;;;1.70;;
11439;SDS011;5776;51.814;4.510;2023-08-01T00:39:11;3.13;;;1.17;;
11439;SDS011;5776;51.814;4.510;2023-08-01T00:41:37;5.60;;;1.33;;
11439;SDS011;5776;51.814;4.510;2023-08-01T00:44:03;5.75;;;1.23;;
11439;SDS011;5776;51.814;4.510;2023-08-01T00:46:32;5.50;;;1.33;;
11439;SDS011;5776;51.814;4.510;2023-08-01T00:48:59;6.97;;;1.98;;
11439;SDS011;5776;51.814;4.510;2023-08-01T00:51:26;5.97;;;1.90;;
11439;SDS011;5776;51.814;4.510;2023-08-01T00:53:53;6.43;;;1.77;;
11439;SDS011;5776;51.814;4.510;2023-08-01T00:56:22;8.95;;;2.08;;
11439;SDS011;5776;51.814;4.510;2023-08-01T00:58:51;6.50;;;1.23;;
11439;SDS011;5776;51.814;4.510;2023-08-01T01:01:17;4.32;;;1.35;;
11439;SDS011;5776;51.814;4.510;2023-08-01T01:03:44;5.30;;;1.48;;
11439;SDS011;5776;51.814;4.510;2023-08-01T01:06:32;4.18;;;1.40;;
11439;SDS011;5776;51.814;4.510;2023-08-01T01:09:15;6.93;;;1.65;;
11439;SDS011;5776;51.814;4.510;2023-08-01T01:11:44;4.70;;;1.50;;
11439;SDS011;5776;51.814;4.510;2023-08-01T01:14:10;5.45;;;1.85;;
11439;SDS011;5776;51.814;4.510;2023-08-01T01:16:36;4.78;;;1.40;;
11439;SDS011;5776;51.814;4.510;2023-08-01T01:19:06;4.95;;;1.60;;
11439;SDS011;5776;51.814;4.510;2023-08-01T01:21:36;5.32;;;1.83;;
11439;SDS011;5776;51.814;4.510;2023-08-01T01:24:04;4.47;;;1.50;;
11439;SDS011;5776;51.814;4.510;2023-08-01T01:26:33;4.13;;;1.38;;
11439;SDS011;5776;51.814;4.510;2023-08-01T01:29:00;6.45;;;1.55;;
11439;SDS011;5776;51.814;4.510;2023-08-01T01:31:27;5.25;;;1.63;;
11439;SDS011;5776;51.814;4.510;2023-08-01T01:33:54;8.88;;;1.77;;
11439;SDS011;5776;51.814;4.510;2023-08-01T01:36:20;4.68;;;1.88;;
11439;SDS011;5776;51.814;4.510;2023-08-01T01:38:46;5.93;;;1.80;;
11439;SDS011;5776;51.814;4.510;2023-08-01T01:41:12;7.60;;;2.00;;
11439;SDS011;5776;51.814;4.510;2023-08-01T01:43:38;6.45;;;1.90;;
11439;SDS011;5776;51.814;4.510;2023-08-01T01:46:05;6.03;;;2.00;;
11439;SDS011;5776;51.814;4.510;2023-08-01T01:48:32;6.53;;;1.88;;
11439;SDS011;5776;51.814;4.510;2023-08-01T01:51:00;8.95;;;2.13;;
11439;SDS011;5776;51.814;4.510;2023-08-01T01:53:28;5.03;;;1.92;;
11439;SDS011;5776;51.814;4.510;2023-08-01T01:55:54;7.03;;;1.95;;
11439;SDS011;5776;51.814;4.510;2023-08-01T01:58:22;3.83;;;1.55;;
11439;SDS011;5776;51.814;4.510;2023-08-01T02:00:48;6.95;;;1.98;;
11439;SDS011;5776;51.814;4.510;2023-08-01T02:03:14;4.95;;;1.85;;
11439;SDS011;5776;51.814;4.510;2023-08-01T02:05:41;4.60;;;1.55;;
11439;SDS011;5776;51.814;4.510;2023-08-01T02:08:08;3.45;;;1.67;;
11439;SDS011;5776;51.814;4.510;2023-08-01T02:10:35;2.25;;;1.30;;
11439;SDS011;5776;51.814;4.510;2023-08-01T02:13:01;3.05;;;1.42;;
11439;SDS011;5776;51.814;4.510;2023-08-01T02:15:27;4.47;;;2.13;;
11439;SDS011;5776;51.814;4.510;2023-08-01T02:17:53;3.67;;;1.65;;
11439;SDS011;5776;51.814;4.510;2023-08-01T02:20:19;11.23;;;2.35;;
11439;SDS011;5776;51.814;4.510;2023-08-01T02:22:45;5.47;;;1.55;;
11439;SDS011;5776;51.814;4.510;2023-08-01T02:25:11;10.60;;;2.20;;
11439;SDS011;5776;51.814;4.510;2023-08-01T02:27:41;5.13;;;2.00;;
11439;SDS011;5776;51.814;4.510;2023-08-01T02:30:07;7.32;;;1.80;;
11439;SDS011;5776;51.814;4.510;2023-08-01T02:32:36;6.90;;;1.80;;
11439;SDS011;5776;51.814;4.510;2023-08-01T02:35:02;7.13;;;1.95;;
11439;SDS011;5776;51.814;4.510;2023-08-01T02:37:28;6.65;;;1.77;;
11439;SDS011;5776;51.814;4.510;2023-08-01T02:39:58;5.40;;;2.00;;
11439;SDS011;5776;51.814;4.510;2023-08-01T02:42:43;2.95;;;1.73;;
11439;SDS011;5776;51.814;4.510;2023-08-01T02:45:09;7.00;;;2.08;;
11439;SDS011;5776;51.814;4.510;2023-08-01T02:47:37;4.40;;;1.67;;
11439;SDS011;5776;51.814;4.510;2023-08-01T02:50:05;6.43;;;1.70;;
11439;SDS011;5776;51.814;4.510;2023-08-01T02:52:32;7.80;;;2.05;;
11439;SDS011;5776;51.814;4.510;2023-08-01T02:54:59;7.53;;;2.55;;
11439;SDS011;5776;51.814;4.510;2023-08-01T02:57:27;5.05;;;1.75;;
11439;SDS011;5776;51.814;4.510;2023-08-01T02:59:53;7.72;;;2.03;;
11439;SDS011;5776;51.814;4.510;2023-08-01T03:02:19;4.30;;;1.88;;
11439;SDS011;5776;51.814;4.510;2023-08-01T03:04:46;4.70;;;2.13;;
11439;SDS011;5776;51.814;4.510;2023-08-01T03:07:15;6.70;;;2.22;;
11439;SDS011;5776;51.814;4.510;2023-08-01T03:09:41;9.60;;;2.80;;
11439;SDS011;5776;51.814;4.510;2023-08-01T03:12:08;7.72;;;2.17;;
11439;SDS011;5776;51.814;4.510;2023-08-01T03:14:35;5.45;;;2.40;;
11439;SDS011;5776;51.814;4.510;2023-08-01T03:17:01;4.13;;;2.05;;
11439;SDS011;5776;51.814;4.510;2023-08-01T03:19:27;5.03;;;1.92;;
11439;SDS011;5776;51.814;4.510;2023-08-01T03:21:55;5.10;;;2.17;;
11439;SDS011;5776;51.814;4.510;2023-08-01T03:24:21;8.18;;;2.47;;
11439;SDS011;5776;51.814;4.510;2023-08-01T03:26:47;5.18;;;2.33;;
11439;SDS011;5776;51.814;4.510;2023-08-01T03:29:15;7.38;;;2.45;;
11439;SDS011;5776;51.814;4.510;2023-08-01T03:31:41;7.55;;;2.72;;
11439;SDS011;5776;51.814;4.510;2023-08-01T03:34:08;4.95;;;1.88;;
11439;SDS011;5776;51.814;4.510;2023-08-01T03:36:35;10.25;;;2.65;;
11439;SDS011;5776;51.814;4.510;2023-08-01T03:39:02;5.57;;;2.63;;
11439;SDS011;5776;51.814;4.510;2023-08-01T03:41:29;8.48;;;2.83;;
11439;SDS011;5776;51.814;4.510;2023-08-01T03:43:58;6.28;;;2.70;;
11439;SDS011;5776;51.814;4.510;2023-08-01T03:46:24;9.43;;;3.17;;
11439;SDS011;5776;51.814;4.510;2023-08-01T03:48:50;7.80;;;2.92;;
11439;SDS011;5776;51.814;4.510;2023-08-01T03:51:16;9.50;;;3.35;;
11439;SDS011;5776;51.814;4.510;2023-08-01T03:53:45;10.63;;;3.28;;
11439;SDS011;5776;51.814;4.510;2023-08-01T03:56:11;8.80;;;3.00;;
11439;SDS011;5776;51.814;4.510;2023-08-01T03:58:37;8.93;;;2.70;;
11439;SDS011;5776;51.814;4.510;2023-08-01T04:01:04;9.73;;;3.03;;
11439;SDS011;5776;51.814;4.510;2023-08-01T04:03:32;6.75;;;2.60;;
11439;SDS011;5776;51.814;4.510;2023-08-01T04:05:59;10.70;;;3.47;;
11439;SDS011;5776;51.814;4.510;2023-08-01T04:08:27;5.13;;;2.25;;
11439;SDS011;5776;51.814;4.510;2023-08-01T04:10:53;10.40;;;2.88;;
11439;SDS011;5776;51.814;4.510;2023-08-01T04:13:20;9.93;;;3.03;;
11439;SDS011;5776;51.814;4.510;2023-08-01T04:15:46;7.90;;;2.55;;
11439;SDS011;5776;51.814;4.510;2023-08-01T04:18:12;9.00;;;2.85;;
11439;SDS011;5776;51.814;4.510;2023-08-01T04:20:38;7.82;;;2.78;;
11439;SDS011;5776;51.814;4.510;2023-08-01T04:23:05;7.55;;;2.45;;
11439;SDS011;5776;51.814;4.510;2023-08-01T04:25:30;7.45;;;2.42;;
11439;SDS011;5776;51.814;4.510;2023-08-01T04:27:57;6.75;;;2.20;;
11439;SDS011;5776;51.814;4.510;2023-08-01T04:30:22;7.65;;;2.90;;
11439;SDS011;5776;51.814;4.510;2023-08-01T04:32:48;7.72;;;2.67;;
11439;SDS011;5776;51.814;4.510;2023-08-01T04:35:15;10.13;;;2.75;;
11439;SDS011;5776;51.814;4.510;2023-08-01T04:37:41;9.75;;;2.42;;
11439;SDS011;5776;51.814;4.510;2023-08-01T04:40:07;9.30;;;2.60;;
11439;SDS011;5776;51.814;4.510;2023-08-01T04:42:35;5.43;;;2.17;;
11439;SDS011;5776;51.814;4.510;2023-08-01T04:45:01;7.78;;;2.08;;
11439;SDS011;5776;51.814;4.510;2023-08-01T04:47:28;9.25;;;2.90;;
11439;SDS011;5776;51.814;4.510;2023-08-01T04:49:57;9.32;;;2.65;;
11439;SDS011;5776;51.814;4.510;2023-08-01T04:52:24;7.00;;;2.80;;
11439;SDS011;5776;51.814;4.510;2023-08-01T04:54:50;8.10;;;2.80;;
11439;SDS011;5776;51.814;4.510;2023-08-01T04:57:16;9.30;;;2.70;;
11439;SDS011;5776;51.814;4.510;2023-08-01T04:59:42;7.28;;;2.40;;
11439;SDS011;5776;51.814;4.510;2023-08-01T05:02:07;6.43;;;2.80;;
11439;SDS011;5776;51.814;4.510;2023-08-01T05:04:35;9.98;;;2.90;;
11439;SDS011;5776;51.814;4.510;2023-08-01T05:07:00;7.88;;;2.53;;
11439;SDS011;5776;51.814;4.510;2023-08-01T05:09:26;9.65;;;2.63;;
11439;SDS011;5776;51.814;4.510;2023-08-01T05:11:53;12.00;;;3.38;;
11439;SDS011;5776;51.814;4.510;2023-08-01T05:14:19;7.15;;;2.50;;
11439;SDS011;5776;51.814;4.510;2023-08-01T05:16:44;7.25;;;1.98;;
11439;SDS011;5776;51.814;4.510;2023-08-01T05:19:10;8.13;;;2.30;;
11439;SDS011;5776;51.814;4.510;2023-08-01T05:21:36;5.72;;;2.00;;
11439;SDS011;5776;51.814;4.510;2023-08-01T05:24:02;5.28;;;2.30;;
11439;SDS011;5776;51.814;4.510;2023-08-01T05:26:27;5.32;;;2.17;;
11439;SDS011;5776;51.814;4.510;2023-08-01T05:28:53;10.85;;;2.38;;
11439;SDS011;5776;51.814;4.510;2023-08-01T05:31:19;9.60;;;2.50;;
11439;SDS011;5776;51.814;4.510;2023-08-01T05:33:45;5.07;;;2.20;;
11439;SDS011;5776;51.814;4.510;2023-08-01T05:36:11;6.78;;;2.42;;
11439;SDS011;5776;51.814;4.510;2023-08-01T05:38:37;6.53;;;1.95;;
11439;SDS011;5776;51.814;4.510;2023-08-01T05:41:03;6.53;;;1.92;;
11439;SDS011;5776;51.814;4.510;2023-08-01T05:43:29;7.60;;;2.08;;
11439;SDS011;5776;51.814;4.510;2023-08-01T05:45:55;7.45;;;1.70;;
11439;SDS011;5776;51.814;4.510;2023-08-01T05:48:21;8.50;;;1.95;;
11439;SDS011;5776;51.814;4.510;2023-08-01T05:50:47;7.25;;;1.73;;
11439;SDS011;5776;51.814;4.510;2023-08-01T05:53:13;7.78;;;2.25;;
11439;SDS011;5776;51.814;4.510;2023-08-01T05:55:39;5.45;;;1.88;;
11439;SDS011;5776;51.814;4.510;2023-08-01T05:58:05;4.80;;;1.95;;
11439;SDS011;5776;51.814;4.510;2023-08-01T06:00:31;6.53;;;2.35;;
11439;SDS011;5776;51.814;4.510;2023-08-01T06:02:56;9.27;;;2.50;;
11439;SDS011;5776;51.814;4.510;2023-08-01T06:05:22;6.18;;;2.30;;
11439;SDS011;5776;51.814;4.510;2023-08-01T06:07:48;5.40;;;1.95;;
11439;SDS011;5776;51.814;4.510;2023-08-01T06:10:15;8.65;;;2.03;;
11439;SDS011;5776;51.814;4.510;2023-08-01T06:12:41;8.82;;;2.30;;
11439;SDS011;5776;51.814;4.510;2023-08-01T06:15:08;9.10;;;2.65;;
11439;SDS011;5776;51.814;4.510;2023-08-01T06:17:34;8.27;;;2.10;;
11439;SDS011;5776;51.814;4.510;2023-08-01T06:19:59;9.30;;;1.90;;
11439;SDS011;5776;51.814;4.510;2023-08-01T06:22:25;7.22;;;2.13;;
11439;SDS011;5776;51.814;4.510;2023-08-01T06:24:51;8.73;;;2.25;;
11439;SDS011;5776;51.814;4.510;2023-08-01T06:27:17;5.63;;;2.00;;
11439;SDS011;5776;51.814;4.510;2023-08-01T06:29:43;6.88;;;2.00;;
11439;SDS011;5776;51.814;4.510;2023-08-01T06:32:09;8.32;;;2.22;;
11439;SDS011;5776;51.814;4.510;2023-08-01T06:34:35;5.85;;;1.77;;
11439;SDS011;5776;51.814;4.510;2023-08-01T06:37:01;9.05;;;2.47;;
11439;SDS011;5776;51.814;4.510;2023-08-01T06:39:27;7.93;;;2.03;;
11439;SDS011;5776;51.814;4.510;2023-08-01T06:41:52;6.93;;;2.70;;
11439;SDS011;5776;51.814;4.510;2023-08-01T06:44:20;6.68;;;2.33;;
11439;SDS011;5776;51.814;4.510;2023-08-01T06:46:45;4.30;;;1.70;;
11439;SDS011;5776;51.814;4.510;2023-08-01T06:49:14;11.50;;;2.42;;
11439;SDS011;5776;51.814;4.510;2023-08-01T06:51:40;7.88;;;2.65;;
11439;SDS011;5776;51.814;4.510;2023-08-01T06:54:09;8.20;;;2.25;;
11439;SDS011;5776;51.814;4.510;2023-08-01T06:56:35;7.47;;;2.40;;
11439;SDS011;5776;51.814;4.510;2023-08-01T06:59:02;7.03;;;3.00;;
11439;SDS011;5776;51.814;4.510;2023-08-01T07:01:28;5.20;;;2.17;;
11439;SDS011;5776;51.814;4.510;2023-08-01T07:03:54;5.13;;;1.83;;
11439;SDS011;5776;51.814;4.510;2023-08-01T07:06:21;9.13;;;2.22;;
11439;SDS011;5776;51.814;4.510;2023-08-01T07:08:47;9.77;;;2.40;;
11439;SDS011;5776;51.814;4.510;2023-08-01T07:11:12;7.22;;;2.65;;
11439;SDS011;5776;51.814;4.510;2023-08-01T07:13:38;9.38;;;2.40;;
11439;SDS011;5776;51.814;4.510;2023-08-01T07:16:05;7.78;;;1.92;;
11439;SDS011;5776;51.814;4.510;2023-08-01T07:18:37;6.00;;;2.38;;
11439;SDS011;5776;51.814;4.510;2023-08-01T07:21:04;9.13;;;2.75;;
11439;SDS011;5776;51.814;4.510;2023-08-01T07:23:30;5.80;;;2.10;;
11439;SDS011;5776;51.814;4.510;2023-08-01T07:25:58;5.95;;;1.90;;
11439;SDS011;5776;51.814;4.510;2023-08-01T07:28:24;6.88;;;1.83;;
11439;SDS011;5776;51.814;4.510;2023-08-01T07:30:57;7.32;;;1.73;;
11439;SDS011;5776;51.814;4.510;2023-08-01T07:33:42;8.38;;;2.25;;
11439;SDS011;5776;51.814;4.510;2023-08-01T07:36:09;8.07;;;1.83;;
11439;SDS011;5776;51.814;4.510;2023-08-01T07:38:38;8.73;;;2.00;;
11439;SDS011;5776;51.814;4.510;2023-08-01T07:41:04;5.28;;;1.50;;
11439;SDS011;5776;51.814;4.510;2023-08-01T07:43:33;7.18;;;2.25;;
11439;SDS011;5776;51.814;4.510;2023-08-01T07:46:00;11.07;;;1.88;;
11439;SDS011;5776;51.814;4.510;2023-08-01T07:48:27;8.43;;;1.90;;
11439;SDS011;5776;51.814;4.510;2023-08-01T07:50:57;8.10;;;2.20;;
11439;SDS011;5776;51.814;4.510;2023-08-01T07:53:23;7.72;;;1.80;;
11439;SDS011;5776;51.814;4.510;2023-08-01T07:55:51;6.38;;;2.08;;
11439;SDS011;5776;51.814;4.510;2023-08-01T07:58:18;5.40;;;2.28;;
11439;SDS011;5776;51.814;4.510;2023-08-01T08:00:46;5.78;;;1.80;;
11439;SDS011;5776;51.814;4.510;2023-08-01T08:03:17;7.97;;;2.30;;
11439;SDS011;5776;51.814;4.510;2023-08-01T08:05:46;7.75;;;2.35;;
11439;SDS011;5776;51.814;4.510;2023-08-01T08:08:13;5.50;;;1.95;;
11439;SDS011;5776;51.814;4.510;2023-08-01T08:10:40;6.20;;;2.10;;
11439;SDS011;5776;51.814;4.510;2023-08-01T08:13:06;5.40;;;2.08;;
11439;SDS011;5776;51.814;4.510;2023-08-01T08:15:32;4.93;;;1.73;;
11439;SDS011;5776;51.814;4.510;2023-08-01T08:18:01;6.55;;;2.00;;
11439;SDS011;5776;51.814;4.510;2023-08-01T08:20:33;8.68;;;2.28;;
11439;SDS011;5776;51.814;4.510;2023-08-01T08:23:05;8.70;;;1.85;;
11439;SDS011;5776;51.814;4.510;2023-08-01T08:25:32;6.25;;;1.73;;
11439;SDS011;5776;51.814;4.510;2023-08-01T08:27:58;7.88;;;2.50;;
11439;SDS011;5776;51.814;4.510;2023-08-01T08:30:24;8.15;;;2.03;;
11439;SDS011;5776;51.814;4.510;2023-08-01T08:32:50;6.57;;;2.15;;
11439;SDS011;5776;51.814;4.510;2023-08-01T08:35:19;7.22;;;2.10;;
11439;SDS011;5776;51.814;4.510;2023-08-01T08:37:46;10.15;;;2.30;;
11439;SDS011;5776;51.814;4.510;2023-08-01T08:40:15;10.30;;;2.30;;
11439;SDS011;5776;51.814;4.510;2023-08-01T08:42:42;9.55;;;2.22;;
11439;SDS011;5776;51.814;4.510;2023-08-01T08:45:10;7.05;;;2.50;;
11439;SDS011;5776;51.814;4.510;2023-08-01T08:47:40;10.38;;;2.38;;
11439;SDS011;5776;51.814;4.510;2023-08-01T08:50:09;8.05;;;2.30;;
11439;SDS011;5776;51.814;4.510;2023-08-01T08:52:37;8.63;;;2.15;;
11439;SDS011;5776;51.814;4.510;2023-08-01T08:55:03;11.32;;;2.65;;
11439;SDS011;5776;51.814;4.510;2023-08-01T08:57:31;8.15;;;2.25;;
11439;SDS011;5776;51.814;4.510;2023-08-01T08:59:58;9.68;;;2.22;;
11439;SDS011;5776;51.814;4.510;2023-08-01T09:02:36;12.65;;;2.30;;
11439;SDS011;5776;51.814;4.510;2023-08-01T09:05:03;6.97;;;2.05;;
11439;SDS011;5776;51.814;4.510;2023-08-01T09:07:29;7.97;;;2.10;;
11439;SDS011;5776;51.814;4.510;2023-08-01T09:09:59;7.70;;;2.40;;
11439;SDS011;5776;51.814;4.510;2023-08-01T09:12:34;6.03;;;2.58;;
11439;SDS011;5776;51.814;4.510;2023-08-01T09:15:00;7.03;;;2.30;;
11439;SDS011;5776;51.814;4.510;2023-08-01T09:17:27;6.75;;;2.05;;
11439;SDS011;5776;51.814;4.510;2023-08-01T09:20:06;7.88;;;1.95;;
11439;SDS011;5776;51.814;4.510;2023-08-01T09:22:45;13.23;;;2.25;;
11439;SDS011;5776;51.814;4.510;2023-08-01T09:25:30;9.23;;;2.05;;
11439;SDS011;5776;51.814;4.510;2023-08-01T09:27:58;10.02;;;1.75;;
11439;SDS011;5776;51.814;4.510;2023-08-01T09:30:24;8.13;;;2.22;;
11439;SDS011;5776;51.814;4.510;2023-08-01T09:32:55;11.70;;;2.10;;
11439;SDS011;5776;51.814;4.510;2023-08-01T09:35:22;7.28;;;2.22;;
11439;SDS011;5776;51.814;4.510;2023-08-01T09:37:50;10.00;;;2.47;;
11439;SDS011;5776;51.814;4.510;2023-08-01T09:40:15;8.25;;;1.85;;
11439;SDS011;5776;51.814;4.510;2023-08-01T09:42:44;6.20;;;2.17;;
11439;SDS011;5776;51.814;4.510;2023-08-01T09:45:15;6.18;;;2.05;;
11439;SDS011;5776;51.814;4.510;2023-08-01T09:47:42;4.82;;;1.90;;
11439;SDS011;5776;51.814;4.510;2023-08-01T09:50:10;6.70;;;1.77;;
11439;SDS011;5776;51.814;4.510;2023-08-01T09:52:41;7.40;;;1.88;;
11439;SDS011;5776;51.814;4.510;2023-08-01T09:55:10;8.93;;;1.63;;
11439;SDS011;5776;51.814;4.510;2023-08-01T09:57:36;9.68;;;1.50;;
11439;SDS011;5776;51.814;4.510;2023-08-01T10:00:11;4.30;;;1.55;;
11439;SDS011;5776;51.814;4.510;2023-08-01T10:02:39;6.05;;;1.27;;
11439;SDS011;5776;51.814;4.510;2023-08-01T10:05:09;4.57;;;1.77;;
11439;SDS011;5776;51.814;4.510;2023-08-01T10:07:40;7.15;;;1.70;;
11439;SDS011;5776;51.814;4.510;2023-08-01T10:10:09;3.17;;;1.40;;
11439;SDS011;5776;51.814;4.510;2023-08-01T10:12:38;4.20;;;1.25;;
11439;SDS011;5776;51.814;4.510;2023-08-01T10:15:09;5.07;;;1.50;;
11439;SDS011;5776;51.814;4.510;2023-08-01T10:17:35;3.47;;;1.52;;
11439;SDS011;5776;51.814;4.510;2023-08-01T10:20:04;4.38;;;1.40;;
11439;SDS011;5776;51.814;4.510;2023-08-01T10:22:32;5.85;;;1.40;;
11439;SDS011;5776;51.814;4.510;2023-08-01T10:24:59;5.57;;;1.38;;
11439;SDS011;5776;51.814;4.510;2023-08-01T10:27:27;7.72;;;1.83;;
11439;SDS011;5776;51.814;4.510;2023-08-01T10:30:02;7.18;;;2.05;;
11439;SDS011;5776;51.814;4.510;2023-08-01T10:32:34;6.40;;;1.90;;
11439;SDS011;5776;51.814;4.510;2023-08-01T10:35:01;8.48;;;1.92;;
11439;SDS011;5776;51.814;4.510;2023-08-01T10:37:38;7.47;;;1.45;;
11439;SDS011;5776;51.814;4.510;2023-08-01T10:40:06;5.93;;;1.73;;
11439;SDS011;5776;51.814;4.510;2023-08-01T10:42:37;4.97;;;1.45;;
11439;SDS011;5776;51.814;4.510;2023-08-01T10:45:07;3.88;;;0.93;;
11439;SDS011;5776;51.814;4.510;2023-08-01T10:47:35;4.57;;;1.65;;
11439;SDS011;5776;51.814;4.510;2023-08-01T10:50:12;5.45;;;1.38;;
11439;SDS011;5776;51.814;4.510;2023-08-01T10:52:41;3.63;;;1.38;;
11439;SDS011;5776;51.814;4.510;2023-08-01T10:55:08;7.70;;;1.75;;
11439;SDS011;5776;51.814;4.510;2023-08-01T10:58:02;4.95;;;1.50;;
11439;SDS011;5776;51.814;4.510;2023-08-01T11:00:30;8.55;;;1.95;;
11439;SDS011;5776;51.814;4.510;2023-08-01T11:03:03;6.00;;;1.73;;
11439;SDS011;5776;51.814;4.510;2023-08-01T11:05:29;5.03;;;1.50;;
11439;SDS011;5776;51.814;4.510;2023-08-01T11:10:24;9.23;;;1.63;;
11439;SDS011;5776;51.814;4.510;2023-08-01T11:12:56;6.00;;;1.58;;
11439;SDS011;5776;51.814;4.510;2023-08-01T11:15:22;4.85;;;1.90;;
11439;SDS011;5776;51.814;4.510;2023-08-01T11:17:49;7.15;;;1.48;;
11439;SDS011;5776;51.814;4.510;2023-08-01T11:20:17;6.47;;;1.58;;
11439;SDS011;5776;51.814;4.510;2023-08-01T11:22:54;7.78;;;2.08;;
11439;SDS011;5776;51.814;4.510;2023-08-01T11:25:31;6.07;;;1.88;;
11439;SDS011;5776;51.814;4.510;2023-08-01T11:28:01;9.45;;;1.83;;
11439;SDS011;5776;51.814;4.510;2023-08-01T11:30:40;9.07;;;1.70;;
11439;SDS011;5776;51.814;4.510;2023-08-01T11:35:55;7.30;;;1.60;;
11439;SDS011;5776;51.814;4.510;2023-08-01T11:38:26;2.83;;;1.20;;
11439;SDS011;5776;51.814;4.510;2023-08-01T11:40:56;8.25;;;1.40;;
11439;SDS011;5776;51.814;4.510;2023-08-01T11:43:23;5.15;;;1.70;;
11439;SDS011;5776;51.814;4.510;2023-08-01T11:45:55;6.35;;;1.60;;
11439;SDS011;5776;51.814;4.510;2023-08-01T11:48:38;4.30;;;1.58;;
11439;SDS011;5776;51.814;4.510;2023-08-01T11:51:04;7.30;;;1.80;;
11439;SDS011;5776;51.814;4.510;2023-08-01T11:53:31;5.15;;;1.30;;
11439;SDS011;5776;51.814;4.510;2023-08-01T11:56:06;7.65;;;1.60;;
11439;SDS011;5776;51.814;4.510;2023-08-01T11:58:34;8.55;;;1.77;;
11439;SDS011;5776;51.814;4.510;2023-08-01T12:01:07;5.45;;;1.50;;
11439;SDS011;5776;51.814;4.510;2023-08-01T12:03:48;5.05;;;1.70;;
11439;SDS011;5776;51.814;4.510;2023-08-01T12:06:16;7.25;;;2.00;;
11439;SDS011;5776;51.814;4.510;2023-08-01T12:08:46;4.07;;;1.52;;
11439;SDS011;5776;51.814;4.510;2023-08-01T12:11:17;4.53;;;1.38;;
11439;SDS011;5776;51.814;4.510;2023-08-01T12:13:47;5.93;;;1.65;;
11439;SDS011;5776;51.814;4.510;2023-08-01T12:16:13;6.85;;;1.60;;
11439;SDS011;5776;51.814;4.510;2023-08-01T12:18:45;5.28;;;1.20;;
11439;SDS011;5776;51.814;4.510;2023-08-01T12:21:12;5.25;;;1.17;;
11439;SDS011;5776;51.814;4.510;2023-08-01T12:23:39;2.05;;;1.08;;
11439;SDS011;5776;51.814;4.510;2023-08-01T12:26:06;4.13;;;1.40;;
11439;SDS011;5776;51.814;4.510;2023-08-01T12:28:33;6.35;;;1.20;;
11439;SDS011;5776;51.814;4.510;2023-08-01T12:30:59;7.13;;;2.08;;
11439;SDS011;5776;51.814;4.510;2023-08-01T12:33:24;5.63;;;1.38;;
11439;SDS011;5776;51.814;4.510;2023-08-01T12:35:51;6.85;;;1.55;;
11439;SDS011;5776;51.814;4.510;2023-08-01T12:38:17;5.13;;;1.45;;
11439;SDS011;5776;51.814;4.510;2023-08-01T12:40:43;8.90;;;1.83;;
11439;SDS011;5776;51.814;4.510;2023-08-01T12:43:11;12.00;;;1.33;;
11439;SDS011;5776;51.814;4.510;2023-08-01T12:45:36;3.67;;;1.40;;
11439;SDS011;5776;51.814;4.510;2023-08-01T12:48:04;5.35;;;1.33;;
11439;SDS011;5776;51.814;4.510;2023-08-01T12:50:30;4.68;;;1.20;;
11439;SDS011;5776;51.814;4.510;2023-08-01T12:52:57;5.10;;;1.40;;
11439;SDS011;5776;51.814;4.510;2023-08-01T12:55:22;7.15;;;1.92;;
11439;SDS011;5776;51.814;4.510;2023-08-01T12:57:48;7.45;;;1.30;;
11439;SDS011;5776;51.814;4.510;2023-08-01T13:00:14;4.47;;;1.30;;
11439;SDS011;5776;51.814;4.510;2023-08-01T13:02:40;5.65;;;1.20;;
11439;SDS011;5776;51.814;4.510;2023-08-01T13:05:08;4.78;;;1.52;;
11439;SDS011;5776;51.814;4.510;2023-08-01T13:07:36;5.97;;;1.20;;
11439;SDS011;5776;51.814;4.510;2023-08-01T13:10:02;1.80;;;0.75;;
11439;SDS011;5776;51.814;4.510;2023-08-01T13:12:28;5.05;;;1.13;;
11439;SDS011;5776;51.814;4.510;2023-08-01T13:14:54;7.47;;;1.35;;
11439;SDS011;5776;51.814;4.510;2023-08-01T13:17:20;3.97;;;1.20;;
11439;SDS011;5776;51.814;4.510;2023-08-01T13:19:49;3.80;;;1.13;;
11439;SDS011;5776;51.814;4.510;2023-08-01T13:22:15;8.80;;;1.70;;
11439;SDS011;5776;51.814;4.510;2023-08-01T13:24:41;7.05;;;1.42;;
11439;SDS011;5776;51.814;4.510;2023-08-01T13:27:09;5.57;;;1.27;;
11439;SDS011;5776;51.814;4.510;2023-08-01T13:29:35;7.47;;;1.40;;
11439;SDS011;5776;51.814;4.510;2023-08-01T13:32:02;3.55;;;1.15;;
11439;SDS011;5776;51.814;4.510;2023-08-01T13:34:28;4.85;;;1.20;;
11439;SDS011;5776;51.814;4.510;2023-08-01T13:36:53;2.85;;;1.00;;
11439;SDS011;5776;51.814;4.510;2023-08-01T13:39:21;4.93;;;1.15;;
11439;SDS011;5776;51.814;4.510;2023-08-01T13:41:47;6.00;;;1.45;;
11439;SDS011;5776;51.814;4.510;2023-08-01T13:44:13;5.28;;;0.90;;
11439;SDS011;5776;51.814;4.510;2023-08-01T13:46:39;4.35;;;1.35;;
11439;SDS011;5776;51.814;4.510;2023-08-01T13:49:05;3.13;;;1.13;;
11439;SDS011;5776;51.814;4.510;2023-08-01T13:51:34;3.22;;;1.13;;
11439;SDS011;5776;51.814;4.510;2023-08-01T13:54:00;4.05;;;1.25;;
11439;SDS011;5776;51.814;4.510;2023-08-01T13:56:28;8.90;;;1.60;;
11439;SDS011;5776;51.814;4.510;2023-08-01T13:58:55;7.00;;;1.40;;
11439;SDS011;5776;51.814;4.510;2023-08-01T14:01:21;3.75;;;0.98;;
11439;SDS011;5776;51.814;4.510;2023-08-01T14:03:47;3.63;;;1.10;;
11439;SDS011;5776;51.814;4.510;2023-08-01T14:06:14;3.60;;;1.00;;
11439;SDS011;5776;51.814;4.510;2023-08-01T14:08:40;4.60;;;1.17;;
11439;SDS011;5776;51.814;4.510;2023-08-01T14:11:07;5.50;;;1.10;;
11439;SDS011;5776;51.814;4.510;2023-08-01T14:13:34;2.05;;;0.75;;
11439;SDS011;5776;51.814;4.510;2023-08-01T14:16:01;7.95;;;1.55;;
11439;SDS011;5776;51.814;4.510;2023-08-01T14:18:28;5.22;;;1.25;;
11439;SDS011;5776;51.814;4.510;2023-08-01T14:20:55;3.25;;;1.00;;
11439;SDS011;5776;51.814;4.510;2023-08-01T14:23:21;3.20;;;0.82;;
11439;SDS011;5776;51.814;4.510;2023-08-01T14:25:49;4.43;;;0.90;;
11439;SDS011;5776;51.814;4.510;2023-08-01T14:28:16;8.30;;;1.58;;
11439;SDS011;5776;51.814;4.510;2023-08-01T14:30:42;5.22;;;1.23;;
11439;SDS011;5776;51.814;4.510;2023-08-01T14:33:08;2.92;;;1.05;;
11439;SDS011;5776;51.814;4.510;2023-08-01T14:35:35;3.20;;;0.90;;
11439;SDS011;5776;51.814;4.510;2023-08-01T14:38:02;3.20;;;1.13;;
11439;SDS011;5776;51.814;4.510;2023-08-01T14:40:29;2.10;;;0.75;;
11439;SDS011;5776;51.814;4.510;2023-08-01T14:42:56;3.78;;;0.82;;
11439;SDS011;5776;51.814;4.510;2023-08-01T14:45:23;10.10;;;1.55;;
11439;SDS011;5776;51.814;4.510;2023-08-01T14:47:50;5.07;;;1.20;;
11439;SDS011;5776;51.814;4.510;2023-08-01T14:50:17;5.72;;;1.10;;
11439;SDS011;5776;51.814;4.510;2023-08-01T14:52:44;4.85;;;1.20;;
11439;SDS011;5776;51.814;4.510;2023-08-01T14:55:11;9.13;;;1.23;;
11439;SDS011;5776;51.814;4.510;2023-08-01T14:57:39;4.85;;;0.95;;
11439;SDS011;5776;51.814;4.510;2023-08-01T15:00:05;6.38;;;1.40;;
11439;SDS011;5776;51.814;4.510;2023-08-01T15:02:32;5.03;;;1.17;;
11439;SDS011;5776;51.814;4.510;2023-08-01T15:04:58;3.00;;;1.00;;
11439;SDS011;5776;51.814;4.510;2023-08-01T15:07:25;4.85;;;1.25;;